Time;durP1;ratioP1;P1;durP2;ratioP2;P2;SDS_P1;SDS_P2;PMS_P1;PMS_P2;Temp;Humidity;BMP_temperature;BMP_pressure;BME280_temperature;BME280_humidity;BME280_pressure;Samples;Min_cycle;Max_cycle;Signal;HPM_P1;HPM_P2
2022/03/05 00:00:55;;;;;;;29.83;15.35;;;;;;;6.51;43.53;101934.50;5094418;28;20044;-61
2022/03/05 00:03:24;;;;;;;29.77;16.85;;;;;;;6.47;43.64;101936.44;5094086;28;20036;-61
2022/03/05 00:05:51;;;;;;;29.33;16.17;;;;;;;6.44;43.67;101933.00;5093818;28;20058;-61
2022/03/05 00:08:17;;;;;;;28.75;17.00;;;;;;;6.40;43.71;101928.69;5093918;28;20071;-61
2022/03/05 00:10:44;;;;;;;30.27;16.70;;;;;;;6.37;43.77;101929.69;5093470;28;20089;-61
2022/03/05 00:13:12;;;;;;;33.80;18.35;;;;;;;6.35;43.73;101929.75;5076050;28;20044;-61
2022/03/05 00:15:39;;;;;;;30.13;17.05;;;;;;;6.34;43.86;101935.13;5095600;28;20115;-61
2022/03/05 00:18:06;;;;;;;31.95;17.27;;;;;;;6.32;43.95;101935.19;5093717;28;20115;-61
2022/03/05 00:20:33;;;;;;;31.45;15.90;;;;;;;6.30;43.97;101942.38;5093577;28;20393;-61
2022/03/05 00:22:59;;;;;;;33.53;16.65;;;;;;;6.28;43.86;101940.69;5093752;28;20044;-61
2022/03/05 00:25:26;;;;;;;31.85;17.25;;;;;;;6.28;43.83;101936.22;5093485;28;20047;-61
2022/03/05 00:27:53;;;;;;;32.45;16.17;;;;;;;6.26;44.04;101937.19;5093415;28;20465;-62
2022/03/05 00:30:21;;;;;;;30.33;16.05;;;;;;;6.23;43.97;101942.66;5092228;28;20039;-62
2022/03/05 00:32:50;;;;;;;32.17;17.60;;;;;;;6.19;43.99;101939.22;5093641;28;20097;-62
2022/03/05 00:35:17;;;;;;;30.73;16.33;;;;;;;6.15;44.08;101936.72;5093528;28;20043;-61
2022/03/05 00:37:44;;;;;;;34.63;18.25;;;;;;;6.14;44.15;101940.31;5093322;28;20071;-61
2022/03/05 00:40:11;;;;;;;31.38;16.35;;;;;;;6.13;44.17;101935.91;5093362;28;20052;-62
2022/03/05 00:42:38;;;;;;;32.38;15.73;;;;;;;6.11;44.14;101941.28;5093492;28;20067;-61
2022/03/05 00:45:06;;;;;;;30.45;17.35;;;;;;;6.10;44.27;101942.22;5093113;28;20127;-61
2022/03/05 00:47:34;;;;;;;31.92;17.48;;;;;;;6.09;44.11;101939.59;5093404;28;20063;-61
2022/03/05 00:50:02;;;;;;;31.05;17.80;;;;;;;6.07;44.23;101933.44;5093331;28;20048;-60
2022/03/05 00:52:29;;;;;;;31.20;16.55;;;;;;;6.04;44.27;101937.09;5093208;28;20123;-62
2022/03/05 00:54:56;;;;;;;28.88;16.77;;;;;;;6.02;44.39;101933.59;5093500;28;20040;-61
2022/03/05 00:57:23;;;;;;;32.25;18.35;;;;;;;5.99;44.33;101931.06;5100278;28;20040;-61
2022/03/05 00:59:49;;;;;;;31.77;16.38;;;;;;;5.95;44.40;101930.28;5099848;28;20076;-61
2022/03/05 01:02:16;;;;;;;29.10;17.05;;;;;;;5.91;44.49;101925.94;5100236;28;20134;-61
2022/03/05 01:04:43;;;;;;;29.58;15.98;;;;;;;5.88;44.25;101928.69;5099827;28;20040;-61
2022/03/05 01:07:11;;;;;;;31.25;17.13;;;;;;;5.86;44.52;101927.00;5100124;28;20040;-61
2022/03/05 01:09:37;;;;;;;29.65;15.82;;;;;;;5.84;44.48;101928.84;5099554;28;20068;-62
2022/03/05 01:12:04;;;;;;;31.35;17.85;;;;;;;5.83;44.60;101932.44;5098542;28;20032;-62
2022/03/05 01:14:31;;;;;;;30.38;16.67;;;;;;;5.82;44.49;101930.69;5099591;28;20077;-61
2022/03/05 01:16:57;;;;;;;30.67;16.63;;;;;;;5.79;44.45;101920.13;5114858;28;20040;-61
2022/03/05 01:19:24;;;;;;;29.75;17.10;;;;;;;5.77;44.73;101928.19;5099828;28;20064;-61
2022/03/05 01:21:51;;;;;;;36.00;17.48;;;;;;;5.75;44.71;101919.38;5099963;28;20059;-62
2022/03/05 01:24:17;;;;;;;32.97;17.52;;;;;;;5.74;44.76;101920.28;5099662;28;20114;-62
2022/03/05 01:26:44;;;;;;;31.33;17.23;;;;;;;5.72;44.88;101911.47;5099712;28;20032;-61
2022/03/05 01:29:11;;;;;;;30.55;17.15;;;;;;;5.70;44.72;101918.66;5099668;28;20130;-62
2022/03/05 01:31:38;;;;;;;31.25;16.38;;;;;;;5.67;44.64;101916.97;5100037;28;20105;-61
2022/03/05 01:34:04;;;;;;;32.70;16.90;;;;;;;5.65;44.89;101918.81;5099889;28;20050;-61
2022/03/05 01:36:31;;;;;;;35.50;16.52;;;;;;;5.64;44.94;101919.72;5099477;28;20449;-62
2022/03/05 01:38:57;;;;;;;33.08;17.60;;;;;;;5.63;44.77;101909.13;5099774;28;20072;-62
2022/03/05 01:41:25;;;;;;;32.05;16.33;;;;;;;5.60;44.73;101915.44;5099642;28;20090;-61
2022/03/05 01:43:52;;;;;;;28.88;15.95;;;;;;;5.57;45.07;101915.53;5099454;28;20063;-62
2022/03/05 01:46:37;;;;;;;33.35;16.75;;;;;;;5.55;45.04;101911.19;5099320;28;20054;-61
2022/03/05 01:49:06;;;;;;;35.15;18.17;;;;;;;5.54;45.00;101910.31;5099420;28;20046;-61
2022/03/05 01:51:33;;;;;;;33.90;17.20;;;;;;;5.51;44.95;101918.41;5099588;28;20098;-61
2022/03/05 01:54:00;;;;;;;31.95;16.52;;;;;;;5.49;45.16;101919.38;5099132;28;20062;-61
2022/03/05 01:56:27;;;;;;;32.15;16.08;;;;;;;5.47;44.99;101916.75;5099584;28;20055;-62
2022/03/05 01:58:54;;;;;;;28.25;16.02;;;;;;;5.45;45.21;101921.25;5097928;28;20448;-63
2022/03/05 02:01:23;;;;;;;31.35;16.00;;;;;;;5.39;45.12;101922.34;5098762;28;20123;-62
2022/03/05 02:03:51;;;;;;;31.35;17.02;;;;;;;5.35;45.39;101911.81;5099692;28;20457;-62
2022/03/05 02:06:19;;;;;;;33.45;17.35;;;;;;;5.35;45.15;101919.81;5099455;28;20489;-61
2022/03/05 02:08:46;;;;;;;31.17;16.63;;;;;;;5.35;45.47;101919.81;5095059;28;20048;-61
2022/03/05 02:11:13;;;;;;;32.78;16.50;;;;;;;5.34;45.37;101912.75;5094444;28;20039;-61
2022/03/05 02:13:43;;;;;;;28.60;16.50;;;;;;;5.33;45.40;101916.34;5096180;28;20072;-61
2022/03/05 02:16:10;;;;;;;29.48;15.95;;;;;;;5.32;45.49;101909.25;5096354;28;20111;-61
2022/03/05 02:18:37;;;;;;;37.08;18.05;;;;;;;5.31;45.42;101913.72;5098686;28;20374;-60
2022/03/05 02:21:04;;;;;;;30.27;16.27;;;;;;;5.27;45.54;101909.41;5100638;28;20040;-60
2022/03/05 02:23:31;;;;;;;32.03;16.85;;;;;;;5.25;45.49;101908.59;5096206;28;20048;-61
2022/03/05 02:26:00;;;;;;;33.83;17.38;;;;;;;5.24;45.49;101903.31;5096216;28;20044;-61
2022/03/05 02:28:29;;;;;;;33.45;16.95;;;;;;;5.21;45.85;101898.97;5095667;28;20048;-61
2022/03/05 02:30:56;;;;;;;33.75;16.92;;;;;;;5.19;45.51;101907.88;5094061;28;20493;-61
2022/03/05 02:33:23;;;;;;;31.33;17.27;;;;;;;5.15;45.73;101911.56;5095808;28;20036;-62
2022/03/05 02:35:49;;;;;;;32.65;16.10;;;;;;;5.13;45.61;101908.06;5095387;28;20082;-62
2022/03/05 02:38:20;;;;;;;29.42;16.58;;;;;;;5.11;45.80;101900.13;5095842;28;20047;-61
2022/03/05 02:40:48;;;;;;;34.20;18.13;;;;;;;5.08;45.93;101898.44;5095634;28;20036;-61
2022/03/05 02:43:15;;;;;;;36.30;17.63;;;;;;;5.07;45.83;101896.69;5095421;28;20467;-61
2022/03/05 02:45:42;;;;;;;33.25;16.98;;;;;;;5.08;45.81;101901.09;5095532;28;20085;-62
2022/03/05 02:48:11;;;;;;;30.23;16.63;;;;;;;5.05;45.76;101895.88;5095652;28;20044;-62
2022/03/05 02:50:38;;;;;;;35.30;17.95;;;;;;;5.01;46.13;101896.91;5095400;28;20083;-62
2022/03/05 02:53:05;;;;;;;34.03;17.73;;;;;;;4.99;45.89;101900.53;5094742;28;20082;-61
2022/03/05 02:55:33;;;;;;;33.00;17.48;;;;;;;4.93;45.85;101893.59;5095718;28;20040;-61
2022/03/05 02:58:01;;;;;;;35.45;17.80;;;;;;;4.90;46.03;101898.16;5095278;28;20040;-61
2022/03/05 03:00:27;;;;;;;36.15;18.17;;;;;;;4.90;46.04;101888.38;5094873;28;20077;-62
2022/03/05 03:02:54;;;;;;;31.20;17.60;;;;;;;4.91;46.39;101898.09;5094954;28;20185;-62
2022/03/05 03:05:21;;;;;;;33.17;17.90;;;;;;;4.93;46.39;101890.94;5095517;28;20044;-61
2022/03/05 03:07:48;;;;;;;35.85;18.98;;;;;;;4.95;46.40;101885.56;5094838;28;20152;-61
2022/03/05 03:10:16;;;;;;;30.95;16.88;;;;;;;4.96;46.22;101885.53;5094652;28;20094;-60
2022/03/05 03:12:43;;;;;;;33.83;17.35;;;;;;;4.98;46.28;101888.13;5094734;28;20127;-61
2022/03/05 03:15:12;;;;;;;35.92;18.83;;;;;;;4.98;46.30;101885.47;5094940;28;20036;-61
2022/03/05 03:17:44;;;;;;;33.03;17.20;;;;;;;4.99;46.38;101881.88;5094894;28;20040;-61
2022/03/05 03:20:12;;;;;;;35.55;18.15;;;;;;;4.98;46.30;101888.13;5094528;28;20044;-61
2022/03/05 03:22:40;;;;;;;39.08;18.85;;;;;;;4.95;46.11;101883.78;5084660;28;20446;-61
2022/03/05 03:25:07;;;;;;;34.72;18.10;;;;;;;4.96;46.34;101896.16;5094543;28;20036;-61
2022/03/05 03:27:34;;;;;;;37.22;17.88;;;;;;;4.95;46.21;101882.91;5094665;28;20028;-61
2022/03/05 03:30:03;;;;;;;31.83;16.88;;;;;;;4.92;46.23;101883.88;5094584;28;20040;-61
2022/03/05 03:32:30;;;;;;;33.70;17.88;;;;;;;4.88;46.35;101884.88;5094638;28;20481;-61
2022/03/05 03:34:56;;;;;;;38.72;18.48;;;;;;;4.83;46.07;101888.59;5093049;28;20044;-62
2022/03/05 03:37:28;;;;;;;36.97;17.58;;;;;;;4.81;46.37;101888.66;5095200;28;20039;-61
2022/03/05 03:40:00;;;;;;;33.92;18.42;;;;;;;4.79;46.27;101888.69;5090743;28;20078;-61
2022/03/05 03:42:27;;;;;;;34.67;17.38;;;;;;;4.73;46.10;101891.56;5094591;28;20048;-61
2022/03/05 03:44:54;;;;;;;34.47;18.42;;;;;;;4.70;46.33;101882.78;5094235;28;20393;-61
2022/03/05 03:47:22;;;;;;;35.30;17.58;;;;;;;4.68;46.35;101887.28;5089631;28;20090;-62
2022/03/05 03:49:50;;;;;;;32.25;17.48;;;;;;;4.67;46.51;101885.53;5088772;28;20134;-61
2022/03/05 03:52:17;;;;;;;37.28;19.30;;;;;;;4.67;46.66;101880.22;5094265;28;20443;-61
2022/03/05 03:54:46;;;;;;;33.30;18.05;;;;;;;4.66;46.42;101887.34;5094178;28;20040;-61
2022/03/05 03:57:13;;;;;;;36.33;19.05;;;;;;;4.64;46.36;101881.19;5094204;28;20111;-61
2022/03/05 03:59:39;;;;;;;37.17;19.20;;;;;;;4.60;46.41;101881.31;5093886;28;20132;-61
2022/03/05 04:02:08;;;;;;;35.53;18.95;;;;;;;4.56;46.57;101885.00;5089131;28;20131;-62
2022/03/05 04:04:35;;;;;;;41.05;19.20;;;;;;;4.52;46.53;101888.66;5072687;28;20494;-62
2022/03/05 04:09:47;;;;;;;37.33;19.42;;;;;;;4.43;46.57;101890.63;5073589;28;20111;-61
2022/03/05 04:12:14;;;;;;;37.17;18.75;;;;;;;4.37;46.75;101893.47;5072345;28;20048;-61
2022/03/05 04:14:41;;;;;;;38.03;19.10;;;;;;;4.33;46.66;101889.16;5073830;28;20040;-61
2022/03/05 04:17:08;;;;;;;41.75;19.48;;;;;;;4.28;46.70;101891.09;5092538;28;20524;-62
2022/03/05 04:19:35;;;;;;;37.60;19.73;;;;;;;4.26;46.96;101900.88;5093574;28;20048;-62
2022/03/05 04:22:02;;;;;;;39.55;19.95;;;;;;;4.23;47.00;101903.63;5092612;28;20481;-61
2022/03/05 04:24:29;;;;;;;43.33;21.25;;;;;;;4.21;47.02;101894.81;5093944;28;20072;-61
2022/03/05 04:26:56;;;;;;;42.80;19.95;;;;;;;4.20;47.26;101895.75;5093736;28;20101;-61
2022/03/05 04:29:23;;;;;;;43.80;21.35;;;;;;;4.20;47.07;101903.72;5093442;28;20123;-61
2022/03/05 04:31:50;;;;;;;43.25;20.45;;;;;;;4.21;47.36;101908.13;5092726;28;20089;-61
2022/03/05 04:34:17;;;;;;;39.78;20.48;;;;;;;4.20;47.27;101901.06;5093516;28;20110;-61
2022/03/05 04:36:44;;;;;;;39.25;19.33;;;;;;;4.20;47.35;101906.38;5093709;28;20048;-61
2022/03/05 04:39:10;;;;;;;38.97;20.77;;;;;;;4.21;47.51;101904.59;5093312;28;20044;-61
2022/03/05 04:41:37;;;;;;;42.20;20.17;;;;;;;4.22;47.45;101907.22;5093217;28;20059;-61
2022/03/05 04:44:04;;;;;;;37.58;19.27;;;;;;;4.22;47.53;101906.34;5092447;28;20113;-61
2022/03/05 04:46:31;;;;;;;37.70;19.33;;;;;;;4.21;47.51;101910.78;5093257;28;20044;-62
2022/03/05 04:48:59;;;;;;;35.45;18.75;;;;;;;4.19;47.23;101917.94;5093212;28;20028;-62
2022/03/05 04:51:26;;;;;;;38.88;19.45;;;;;;;4.18;47.66;101910.00;5093262;28;20048;-62
2022/03/05 04:53:52;;;;;;;41.33;19.88;;;;;;;4.16;47.40;101912.69;5093278;28;20389;-61
2022/03/05 04:56:19;;;;;;;38.50;19.35;;;;;;;4.15;47.44;101911.81;5093318;28;20065;-63
2022/03/05 04:58:46;;;;;;;36.90;18.33;;;;;;;4.15;47.68;101919.78;5093180;28;20040;-62
2022/03/05 05:01:12;;;;;;;42.08;20.98;;;;;;;4.17;47.50;101922.41;5093364;28;20119;-61
2022/03/05 05:03:39;;;;;;;40.78;20.90;;;;;;;4.17;47.61;101921.53;5093262;28;20040;-62
2022/03/05 05:06:06;;;;;;;40.60;21.00;;;;;;;4.15;47.75;101930.44;5093326;28;20527;-61
2022/03/05 05:08:33;;;;;;;43.92;19.77;;;;;;;4.14;47.73;101927.81;5093385;28;20053;-61
2022/03/05 05:11:00;;;;;;;37.78;19.83;;;;;;;4.12;47.68;101927.00;5091713;28;20050;-61
2022/03/05 05:13:26;;;;;;;41.88;20.98;;;;;;;4.08;47.56;101926.19;5092859;28;20044;-62
2022/03/05 05:15:53;;;;;;;38.58;19.55;;;;;;;4.09;47.64;101933.25;5093231;28;20068;-61
2022/03/05 05:18:20;;;;;;;42.38;20.40;;;;;;;4.10;47.61;101928.81;5092981;28;20040;-61
2022/03/05 05:20:50;;;;;;;45.15;20.95;;;;;;;4.09;47.90;101927.06;5093329;28;20109;-61
2022/03/05 05:23:17;;;;;;;39.83;20.08;;;;;;;4.08;47.90;101928.84;5093486;28;20482;-62
2022/03/05 05:25:44;;;;;;;39.28;19.45;;;;;;;4.06;47.83;101935.13;5092997;28;20037;-62
2022/03/05 05:28:10;;;;;;;39.60;20.70;;;;;;;4.05;47.92;101936.91;5091674;28;20036;-61
2022/03/05 05:30:37;;;;;;;44.00;20.92;;;;;;;4.04;47.95;101947.59;5093031;28;20527;-61
2022/03/05 05:33:04;;;;;;;42.92;20.90;;;;;;;4.02;48.00;101957.38;5092963;28;20370;-62
2022/03/05 05:35:30;;;;;;;44.63;21.58;;;;;;;4.00;47.88;101952.09;5093344;28;20042;-61
2022/03/05 05:37:57;;;;;;;43.80;21.30;;;;;;;3.98;47.85;101953.06;5092945;28;20036;-62
2022/03/05 05:40:25;;;;;;;46.60;21.05;;;;;;;3.95;47.83;101951.34;5075362;28;20127;-62
2022/03/05 05:42:51;;;;;;;41.67;20.92;;;;;;;3.95;48.03;101950.47;5095678;28;20079;-62
2022/03/05 05:45:18;;;;;;;40.97;21.80;;;;;;;3.96;47.94;101954.88;5096743;28;20052;-61
2022/03/05 05:47:45;;;;;;;44.00;20.58;;;;;;;3.96;47.85;101945.13;5079986;28;20436;-61
2022/03/05 05:50:11;;;;;;;42.83;21.23;;;;;;;3.95;48.08;101953.16;5078733;28;20040;-62
2022/03/05 05:52:39;;;;;;;37.47;19.70;;;;;;;3.93;47.80;101954.97;5095375;28;20501;-61
2022/03/05 05:55:06;;;;;;;42.33;20.63;;;;;;;3.92;48.05;101950.56;5096906;28;20115;-61
2022/03/05 05:57:32;;;;;;;44.42;21.67;;;;;;;3.93;48.16;101955.84;5111499;28;20056;-61
2022/03/05 05:59:59;;;;;;;41.35;21.38;;;;;;;3.94;48.19;101949.63;5096354;28;20036;-60
2022/03/05 06:02:26;;;;;;;44.88;21.85;;;;;;;3.94;48.24;101952.28;5096703;28;20040;-62
2022/03/05 06:04:52;;;;;;;43.05;20.17;;;;;;;3.92;48.11;101948.78;5095216;28;20119;-61
2022/03/05 06:07:19;;;;;;;42.17;20.88;;;;;;;3.89;48.28;101950.66;5096499;28;20040;-61
2022/03/05 06:09:46;;;;;;;46.83;21.52;;;;;;;3.84;48.10;101948.09;5096128;28;20558;-60
2022/03/05 06:12:14;;;;;;;45.63;22.08;;;;;;;3.79;48.16;101945.56;5096564;28;20374;-62
2022/03/05 06:14:41;;;;;;;46.20;22.92;;;;;;;3.79;48.37;101942.91;5096455;28;20367;-61
2022/03/05 06:17:08;;;;;;;44.15;22.63;;;;;;;3.80;48.38;101938.47;5096420;28;20043;-61
2022/03/05 06:19:35;;;;;;;48.17;21.05;;;;;;;3.79;48.20;101944.69;5096243;28;20461;-61
2022/03/05 06:22:03;;;;;;;43.35;21.67;;;;;;;3.79;48.40;101947.34;5096083;28;20067;-61
2022/03/05 06:24:30;;;;;;;42.45;21.70;;;;;;;3.78;48.55;101940.28;5096125;28;20362;-61
2022/03/05 06:26:56;;;;;;;37.58;19.70;;;;;;;3.76;48.31;101947.44;5096344;28;20439;-61
2022/03/05 06:29:23;;;;;;;45.10;21.20;;;;;;;3.76;48.57;101942.13;5096013;28;20040;-61
2022/03/05 06:31:51;;;;;;;50.30;22.23;;;;;;;3.76;48.39;101943.00;5095899;28;20040;-61
2022/03/05 06:34:17;;;;;;;45.10;20.73;;;;;;;3.76;48.43;101948.31;5077883;28;20113;-61
2022/03/05 06:36:44;;;;;;;45.13;21.42;;;;;;;3.76;48.71;101945.66;5096243;28;20113;-61
2022/03/05 06:39:11;;;;;;;52.33;22.65;;;;;;;3.75;48.50;101943.91;5095937;28;20397;-61
2022/03/05 06:41:37;;;;;;;43.00;21.25;;;;;;;3.77;48.79;101946.53;5095865;28;20044;-61
2022/03/05 06:44:06;;;;;;;44.22;20.67;;;;;;;3.78;48.63;101950.91;5095924;28;20128;-61
2022/03/05 06:46:33;;;;;;;45.28;22.27;;;;;;;3.77;48.81;101947.38;5095611;28;20043;-63
2022/03/05 06:49:00;;;;;;;47.35;23.38;;;;;;;3.76;48.80;101940.34;5095477;28;20127;-61
2022/03/05 06:51:26;;;;;;;46.13;21.98;;;;;;;3.76;48.92;101939.47;5095669;28;20122;-61
2022/03/05 06:53:53;;;;;;;46.20;22.10;;;;;;;3.76;49.06;101937.69;5094575;28;20093;-61
2022/03/05 06:56:19;;;;;;;51.67;23.02;;;;;;;3.76;48.89;101953.63;5094966;28;20086;-61
2022/03/05 06:58:46;;;;;;;47.63;22.45;;;;;;;3.77;49.13;101954.50;5095068;28;20101;-62
2022/03/05 07:01:12;;;;;;;45.40;21.80;;;;;;;3.78;49.13;101946.47;5095303;28;20089;-61
2022/03/05 07:03:39;;;;;;;50.22;21.92;;;;;;;3.81;49.10;101951.72;5095195;28;20044;-61
2022/03/05 07:06:06;;;;;;;46.22;22.33;;;;;;;3.84;49.11;101958.72;5095350;28;20036;-60
2022/03/05 07:08:33;;;;;;;49.40;23.33;;;;;;;3.89;49.29;101974.56;5095242;28;20089;-62
2022/03/05 07:11:00;;;;;;;47.05;22.27;;;;;;;3.91;49.29;101968.28;5092802;28;20097;-61
2022/03/05 07:13:30;;;;;;;48.85;21.88;;;;;;;3.94;49.34;101972.66;5091056;28;20032;-62
2022/03/05 07:15:57;;;;;;;42.83;21.23;;;;;;;3.96;49.13;101969.06;5094345;28;20132;-61
2022/03/05 07:18:24;;;;;;;47.00;22.67;;;;;;;4.00;49.42;101972.50;5092729;28;20044;-61
2022/03/05 07:20:50;;;;;;;49.03;22.80;;;;;;;4.04;49.24;101971.50;5088573;28;20064;-62
2022/03/05 07:23:18;;;;;;;45.85;21.50;;;;;;;4.11;49.54;101975.75;5090830;28;20044;-61
2022/03/05 07:25:45;;;;;;;46.60;22.13;;;;;;;4.19;49.53;101984.41;5082208;28;20050;-61
2022/03/05 07:28:11;;;;;;;45.20;22.08;;;;;;;4.28;49.56;101986.81;5094855;28;20068;-61
2022/03/05 07:30:38;;;;;;;50.75;22.85;;;;;;;4.40;49.42;101990.91;5090297;28;20068;-61
2022/03/05 07:33:12;;;;;;;42.90;20.88;;;;;;;4.52;49.73;101987.09;5085828;28;20039;-61
2022/03/05 07:35:38;;;;;;;43.15;21.67;;;;;;;4.65;49.64;101994.69;5094199;28;20044;-62
2022/03/05 07:38:05;;;;;;;38.13;19.92;;;;;;;4.81;49.68;101994.25;5089496;28;20437;-61
2022/03/05 07:40:31;;;;;;;43.05;19.80;;;;;;;4.96;49.78;101988.47;5088406;28;20068;-61
2022/03/05 07:42:58;;;;;;;41.40;19.50;;;;;;;5.10;49.81;101989.78;5094315;28;20570;-62
2022/03/05 07:45:25;;;;;;;41.92;20.70;;;;;;;5.31;49.73;101984.75;5094528;28;20131;-61
2022/03/05 07:47:52;;;;;;;40.03;20.33;;;;;;;5.53;49.63;101990.28;5094538;28;20044;-61
2022/03/05 07:50:19;;;;;;;42.58;19.75;;;;;;;5.72;49.66;101991.44;5093956;28;20052;-62
2022/03/05 07:52:46;;;;;;;41.17;20.35;;;;;;;5.91;49.73;101995.28;5094233;28;20048;-61
2022/03/05 07:55:13;;;;;;;44.05;21.80;;;;;;;6.12;49.59;101999.03;5094258;28;20047;-61
2022/03/05 07:57:39;;;;;;;38.60;19.48;;;;;;;6.33;49.42;102000.97;5093062;28;20040;-62
2022/03/05 08:00:07;;;;;;;37.25;18.70;;;;;;;6.52;49.28;102011.84;5094112;28;20164;-62
2022/03/05 08:02:50;;;;;;;38.50;19.35;;;;;;;6.69;49.07;102011.28;5094269;28;20048;-60
2022/03/05 08:05:18;;;;;;;41.97;19.17;;;;;;;6.84;48.82;102016.06;5093423;28;20425;-62
2022/03/05 08:07:44;;;;;;;39.30;19.27;;;;;;;7.03;48.69;102018.03;5093770;28;20043;-61
2022/03/05 08:10:11;;;;;;;36.10;19.27;;;;;;;7.14;48.59;102018.50;5097940;28;20051;-61
2022/03/05 08:12:38;;;;;;;35.15;20.25;;;;;;;7.22;48.43;102016.41;5095565;28;20051;-62
2022/03/05 08:15:06;;;;;;;38.20;19.10;;;;;;;7.32;48.37;102020.47;5092555;28;20044;-62
2022/03/05 08:17:32;;;;;;;37.33;19.30;;;;;;;7.43;48.27;102017.38;5093558;28;20404;-63
2022/03/05 08:19:59;;;;;;;38.75;18.85;;;;;;;7.54;48.07;102024.06;5094203;28;20086;-62
2022/03/05 08:22:27;;;;;;;36.75;19.08;;;;;;;7.66;48.01;102020.03;5094188;28;20036;-63
2022/03/05 08:24:55;;;;;;;38.05;20.00;;;;;;;7.83;47.94;102016.66;5093288;28;20143;-62
2022/03/05 08:27:21;;;;;;;40.38;19.50;;;;;;;7.97;47.77;102014.28;5092699;28;20046;-62
2022/03/05 08:29:48;;;;;;;36.28;18.60;;;;;;;8.09;47.50;102007.56;5108835;28;20046;-62
2022/03/05 08:32:15;;;;;;;35.70;18.90;;;;;;;8.23;47.43;102013.22;5093023;28;20043;-63
2022/03/05 08:34:41;;;;;;;39.28;19.73;;;;;;;8.31;47.38;102015.56;5093502;28;20126;-63
2022/03/05 08:37:08;;;;;;;39.95;19.60;;;;;;;8.36;47.25;102014.47;5092742;28;20138;-62
2022/03/05 08:39:34;;;;;;;42.25;20.17;;;;;;;8.45;47.08;102011.41;5093324;28;20068;-62
2022/03/05 08:42:01;;;;;;;40.67;19.65;;;;;;;8.51;46.87;102011.13;5093525;28;20048;-62
2022/03/05 08:44:28;;;;;;;38.83;19.95;;;;;;;8.58;46.90;102009.03;5093537;28;20054;-62
2022/03/05 08:46:55;;;;;;;36.42;19.15;;;;;;;8.66;46.75;102011.38;5093601;28;20055;-63
2022/03/05 08:49:22;;;;;;;41.42;19.13;;;;;;;8.74;46.71;102012.78;5092138;28;20048;-62
2022/03/05 08:51:48;;;;;;;35.40;19.08;;;;;;;8.85;46.66;102007.81;5093476;28;20044;-62
2022/03/05 08:54:15;;;;;;;38.65;20.35;;;;;;;8.94;46.55;102008.34;5093543;28;20101;-62
2022/03/05 08:56:42;;;;;;;40.42;19.85;;;;;;;9.01;46.44;102012.50;5092358;28;20044;-63
2022/03/05 08:59:08;;;;;;;39.92;20.48;;;;;;;9.10;46.40;102014.75;5093260;28;20098;-63
2022/03/05 09:01:35;;;;;;;37.97;20.50;;;;;;;9.18;46.21;102012.59;5093341;28;20036;-63
2022/03/05 09:04:02;;;;;;;42.88;19.80;;;;;;;9.28;46.20;102003.16;5092513;28;20130;-63
2022/03/05 09:06:28;;;;;;;38.70;18.92;;;;;;;9.38;45.99;102007.16;5091839;28;20075;-63
2022/03/05 09:08:57;;;;;;;34.97;19.35;;;;;;;9.46;45.93;102004.97;5093028;28;20075;-63
2022/03/05 09:11:23;;;;;;;39.70;19.83;;;;;;;9.53;45.72;101993.00;5093587;28;20139;-63
2022/03/05 09:13:50;;;;;;;38.72;20.65;;;;;;;9.63;45.66;101997.91;5093366;28;20040;-64
2022/03/05 09:16:16;;;;;;;37.58;21.08;;;;;;;9.70;45.63;102000.25;5092420;28;20044;-63
2022/03/05 09:18:43;;;;;;;35.42;19.70;;;;;;;9.79;45.46;101999.81;5097257;28;20036;-63
2022/03/05 09:21:10;;;;;;;39.83;21.73;;;;;;;9.84;45.39;101992.41;5096349;28;20052;-63
2022/03/05 09:23:36;;;;;;;39.65;20.58;;;;;;;9.87;45.21;101994.94;5097280;28;20131;-63
2022/03/05 09:26:03;;;;;;;37.75;19.98;;;;;;;9.91;45.02;101997.47;5097198;28;20097;-63
2022/03/05 09:28:30;;;;;;;38.70;20.30;;;;;;;9.98;44.92;101994.38;5096901;28;20036;-64
2022/03/05 09:30:58;;;;;;;38.17;21.88;;;;;;;10.09;44.99;101991.16;5096935;28;20040;-64
2022/03/05 09:33:26;;;;;;;38.95;19.67;;;;;;;10.18;44.97;101994.25;5096823;28;20123;-64
2022/03/05 09:35:55;;;;;;;37.83;20.70;;;;;;;10.26;45.05;101995.69;5097117;28;20476;-64
2022/03/05 09:38:22;;;;;;;39.28;20.75;;;;;;;10.35;44.75;101990.72;5096911;28;20393;-65
2022/03/05 09:41:17;;;;;;;38.17;21.27;;;;;;;10.45;44.67;101994.69;5096490;28;20052;-64
2022/03/05 09:43:44;;;;;;;38.95;20.65;;;;;;;10.58;44.55;102000.28;5096490;28;20089;-64
2022/03/05 09:46:11;;;;;;;39.92;21.08;;;;;;;10.69;44.38;102005.09;5096683;28;20044;-65
2022/03/05 09:48:40;;;;;;;36.50;21.08;;;;;;;10.80;44.43;102008.06;5096135;28;20495;-64
2022/03/05 09:51:07;;;;;;;38.17;21.20;;;;;;;10.91;44.26;102002.13;5096625;28;20048;-64
2022/03/05 09:53:34;;;;;;;38.30;20.73;;;;;;;11.00;44.21;101998.94;5112120;28;20040;-64
2022/03/05 09:56:01;;;;;;;36.38;19.95;;;;;;;11.10;43.95;101992.97;5096655;28;20131;-64
2022/03/05 09:58:49;;;;;;;38.90;20.90;;;;;;;11.21;43.74;101997.78;5094871;28;20044;-65
2022/03/05 10:01:17;;;;;;;41.80;19.90;;;;;;;11.28;43.67;101985.75;5095542;28;20036;-65
2022/03/05 10:03:45;;;;;;;36.83;20.15;;;;;;;11.36;43.54;101988.00;5091613;28;20090;-64
2022/03/05 10:06:17;;;;;;;41.95;21.67;;;;;;;11.44;43.28;101996.50;5095496;28;20130;-65
2022/03/05 10:08:44;;;;;;;39.00;21.90;;;;;;;11.50;43.30;101988.09;5103834;28;20104;-64
2022/03/05 10:11:12;;;;;;;39.90;20.02;;;;;;;11.54;43.00;101996.84;5079357;28;20063;-64
2022/03/05 10:13:40;;;;;;;37.63;21.20;;;;;;;11.59;42.88;101987.56;5096798;28;20048;-65
2022/03/05 10:16:24;;;;;;;38.22;21.48;;;;;;;11.67;42.89;101992.50;5095865;28;20083;-65
2022/03/05 10:18:52;;;;;;;36.75;20.33;;;;;;;11.77;42.88;101996.41;5095050;28;20126;-64
2022/03/05 10:21:26;;;;;;;38.35;20.23;;;;;;;11.87;42.57;101989.56;5098095;28;20070;-65
2022/03/05 10:24:08;;;;;;;37.47;20.85;;;;;;;11.97;42.42;101990.78;5086102;28;20517;-65
2022/03/05 10:26:55;;;;;;;36.83;20.30;;;;;;;12.09;42.33;101991.88;5095023;28;20113;-64
2022/03/05 10:29:23;;;;;;;36.75;20.67;;;;;;;12.18;42.19;101990.47;5094286;28;20392;-65
2022/03/05 10:31:58;;;;;;;37.70;20.05;;;;;;;12.25;41.78;101990.00;5095678;28;20096;-64
2022/03/05 10:34:26;;;;;;;38.08;21.50;;;;;;;12.34;41.82;101989.47;5094794;28;20039;-65
2022/03/05 10:37:00;;;;;;;35.15;20.38;;;;;;;12.41;41.67;101990.81;5095610;28;20047;-66
2022/03/05 10:39:28;;;;;;;36.97;20.20;;;;;;;12.49;41.66;101987.66;5088879;28;20072;-65
2022/03/05 10:41:55;;;;;;;40.47;21.65;;;;;;;12.58;41.35;101997.88;5094106;28;20028;-64
2022/03/05 10:44:22;;;;;;;35.13;20.42;;;;;;;12.70;41.25;101982.81;5093159;28;20048;-65
2022/03/05 10:46:57;;;;;;;37.35;21.48;;;;;;;12.83;40.86;101980.22;5090757;28;20081;-66
2022/03/05 10:49:33;;;;;;;34.28;21.40;;;;;;;12.97;41.15;101983.78;5094557;28;20048;-65
2022/03/05 10:51:59;;;;;;;38.08;20.80;;;;;;;13.07;41.14;101992.16;5094495;28;20031;-65
2022/03/05 10:54:30;;;;;;;37.47;21.05;;;;;;;13.16;40.74;101985.31;5091514;28;20086;-65
2022/03/05 10:57:06;;;;;;;37.88;22.50;;;;;;;13.27;40.56;101986.38;5094869;28;20499;-66
2022/03/05 10:59:35;;;;;;;37.40;21.15;;;;;;;13.37;40.31;101989.34;5095258;28;20070;-65
2022/03/05 11:02:02;;;;;;;38.97;20.75;;;;;;;13.44;40.30;101984.47;5094945;28;20036;-65
2022/03/05 11:04:29;;;;;;;37.97;21.42;;;;;;;13.48;39.98;101986.00;5093318;28;20440;-67
2022/03/05 11:06:58;;;;;;;37.25;21.80;;;;;;;13.56;39.99;101989.06;5095357;28;20127;-65
2022/03/05 11:09:26;;;;;;;38.05;20.98;;;;;;;13.62;39.72;101984.13;5094377;28;20439;-64
2022/03/05 11:11:53;;;;;;;36.97;21.08;;;;;;;13.72;39.68;101989.78;5093525;28;20062;-64
2022/03/05 11:14:21;;;;;;;36.20;21.42;;;;;;;13.82;39.66;101996.31;5074957;28;20044;-63
2022/03/05 11:16:48;;;;;;;36.78;20.48;;;;;;;13.91;39.30;101995.69;5087872;28;20042;-64
2022/03/05 11:19:15;;;;;;;36.58;21.33;;;;;;;14.00;39.15;101997.78;5095400;28;20047;-64
2022/03/05 11:21:42;;;;;;;36.95;21.10;;;;;;;14.05;38.93;101989.34;5094188;28;20042;-65